Flight Track Log - Related Links

Times and Time Zones

All times are in EDT time to prevent confusion due to time zone crossing. See the SWA11 flight status page for this flight to view local times or setup timezone preferences in your user account.

Time Position Orientation Groundspeed Altitude Reporting Facility
EDT Latitude Longitude Course Direction KTS MPH feet Rate Location/Type
Wed 10:42:04 AM 32.8500 -96.8667 320° Northwest 169 194 1,400  Level Dallas / Fort Worth TRACON
Wed 10:42:28 AM 32.8667 -96.8833 320° Northwest 162 186 2,100 2,500 Climbing Dallas / Fort Worth TRACON
Wed 10:43:28 AM 32.9000 -96.9333 308° West 206 237 4,900 2,950 Climbing Dallas / Fort Worth TRACON
Wed 10:44:28 AM 32.9000 -97.0000 270° West 233 268 8,000 2,460 Climbing Dallas / Fort Worth TRACON
Wed 10:46:09 AM 32.7697 -97.0164 186° South 321 369 11,500 2,319 Climbing Fort Worth Center
Wed 10:47:11 AM 32.6622 -96.9986 172° South 359 413 14,300 2,640 Climbing Fort Worth Center
Wed 10:48:14 AM 32.5611 -96.9819 172° South 362 417 17,000 2,256 Climbing Fort Worth Center
Wed 10:49:16 AM 32.4592 -96.9653 172° South 371 427 19,000 2,129 Climbing Fort Worth Center
Wed 10:50:18 AM 32.3461 -96.9478 173° South 379 436 21,400 1,790 Climbing Fort Worth Center
Wed 10:51:20 AM 32.2369 -96.9322 173° South 393 452 22,700 1,790 Climbing Fort Worth Center
Wed 10:52:22 AM 32.1150 -96.9103 171° South 404 465 25,100 1,694 Climbing Fort Worth Center
Wed 10:53:24 AM 32.0036 -96.8894 171° South 404 465 26,200 1,355 Climbing Fort Worth Center
Wed 10:54:26 AM 31.8806 -96.8683 172° South 421 484 27,900 1,790 Climbing Fort Worth Center
Wed 10:55:28 AM 31.7650 -96.8486 172° South 419 482 29,900 1,646 Climbing Fort Worth Center
Wed 10:56:19 AM 31.6678 -96.8311 171° South 412 474 31,000 1,646 Climbing Houston Center
Wed 10:57:21 AM 31.5547 -96.8133 172° South 407 468 33,000 968 Climbing Houston Center
Wed 10:58:23 AM 31.4444 -96.7956 172° South 399 459 33,000  Level Houston Center
Wed 10:59:26 AM 31.3325 -96.7514 161° South 422 486 33,000  Level Houston Center
Wed 11:00:28 AM 31.2211 -96.6958 157° South 427 491 33,000 -1,113 Level Houston Center
Wed 11:01:30 AM 31.1078 -96.6411 158° South 428 493 30,700 -2,516 Descending Houston Center
Wed 11:02:32 AM 30.9942 -96.5853 157° South 433 498 27,800 -2,710 Descending Houston Center
Wed 11:03:34 AM 30.8658 -96.5236 158° South 425 489 25,100 -2,371 Descending Houston Center
Wed 11:04:36 AM 30.7600 -96.4728 158° South 411 473 22,900 -2,112 Descending Houston Center
Wed 11:05:39 AM 30.6600 -96.4244 157° South 388 447 20,700 -2,016 Descending Houston Center
Wed 11:06:41 AM 30.5628 -96.3783 158° South 376 433 18,700 -1,887 Descending Houston Center
Wed 11:07:43 AM 30.4681 -96.3331 158° South 369 425 16,800 -1,984 Descending Houston Center
Wed 11:08:45 AM 30.3753 -96.2872 157° South 361 415 14,600 -2,261 Descending Houston Center
Wed 11:08:52 AM 30.3522 -96.2764 158° South 353 406 14,200 -1,935 Descending Houston Center
Wed 11:09:47 AM 30.2844 -96.2450 158° South 352 405 12,600 -1,929 Descending Houston Center
Wed 11:09:48 AM 30.2692 -96.2372 156° South 348 400 12,400 -1,452 Descending Houston Center
Wed 11:10:49 AM 30.1817 -96.1939 157° South 348 400 11,100 -1,355 Descending Houston Center
Wed 11:10:50 AM 30.1806 -96.1936 168° South 347 399 11,000 -190 Descending Houston Center
Wed 11:11:52 AM 30.0922 -96.1447 154° Southeast 352 405 10,900 49 Descending Houston Center
Wed 11:12:52 AM 29.9969 -96.0967 156° South 352 405 11,100  Climbing Houston Center
Wed 11:12:54 AM 30.0028 -96.0983 346° North 351 404 10,900 -188 Descending Houston Center
Wed 11:13:56 AM 29.9156 -96.0481 153° Southeast 351 404 10,900 188 Level Houston Center
Wed 11:13:58 AM 29.9058 -96.0369 135° Southeast 348 400 11,100 -97 Climbing Houston Center
Wed 11:14:58 AM 29.8481 -95.9617 131° Southeast 354 407 10,800 -581 Descending Houston Center
Wed 11:15:00 AM 29.8350 -95.9464 135° Southeast 351 404 10,500 -952 Descending Houston Center
Wed 11:16:01 AM 29.7872 -95.8833 131° Southeast 336 387 9,800 -1,073 Descending Houston Center
Wed 11:17:03 AM 29.7203 -95.7978 132° Southeast 307 353 8,300 -1,317 Descending Houston Center
Wed 11:18:04 AM 29.6672 -95.7325 133° Southeast 278 320 7,100 -1,161 Descending Houston Center
Wed 11:18:05 AM 29.6689 -95.7306 45° Northeast 287 330 7,100 -1,180 Level Houston Center
Wed 11:19:05 AM 29.6150 -95.6642 133° Southeast 265 305 5,900 -1,161 Descending Houston Center
Wed 11:19:07 AM 29.6183 -95.6681 315° West 276 318 5,900 -563 Level Houston Center
Wed 11:20:09 AM 29.5736 -95.6103 132° Southeast 254 292 5,300 -942 Descending Houston Center
Wed 11:21:08 AM 29.5294 -95.5542 132° Southeast 228 262 4,000 -1,143 Descending Houston Center
Wed 11:21:12 AM 29.5331 -95.5581 317° Northwest 228 262 4,100 -1,200 Climbing Houston Center
Wed 11:22:03 AM 29.5192 -95.4881 103° East 238 274 2,900 -1,065 Descending Houston Center
Wed 11:22:14 AM 29.5186 -95.4722 92° East 237 273 3,000 -706 Climbing Houston Center
Wed 11:23:11 AM 29.5308 -95.4075 78° East 231 266 2,100 -871 Descending Houston Center
Wed 11:23:16 AM 29.5325 -95.4039 62° Northeast 235 270 2,100 -197 Level Houston Center
Wed 11:24:12 AM 29.5744 -95.3567 44° Northeast 216 249 1,900 -290 Descending Houston Center
Wed 11:24:18 AM 29.5769 -95.3536 47° Northeast 231 266 1,800 -984 Descending Houston Center
Wed 11:25:13 AM 29.6108 -95.3186 42° Northeast 169 194 900 -968 Descending Houston Center
Wed 11:25:20 AM 29.6125 -95.3150 62° Northeast 196 226 800 -686 Descending Houston Center
Wed 11:26:23 AM 29.6450 -95.2794 44° Northeast 168 193 100 -667 Descending Houston Center
Wed 11:28:00 AM 29.6454 -95.2789 49° Northeast  Level Estimated

Login

Don't have an account? Register now (free) for customized features, flight alerts, and more!